createdAt,value
2022-08-05T00:00:46.717Z,8.80
2022-08-05T00:03:42.798Z,10.40
2022-08-05T00:06:35.905Z,8.90
2022-08-05T00:09:28.405Z,8.60
2022-08-05T00:12:26.218Z,9.00
2022-08-05T00:15:56.348Z,8.90
2022-08-05T00:18:21.422Z,8.50
2022-08-05T00:20:57.186Z,8.80
2022-08-05T00:23:53.654Z,9.40
2022-08-05T00:27:04.828Z,9.70
2022-08-05T00:30:03.192Z,9.10
2022-08-05T00:32:55.975Z,9.40
2022-08-05T00:36:15.989Z,8.90
2022-08-05T00:38:56.729Z,9.40
2022-08-05T00:41:55.434Z,9.90
2022-08-05T00:44:50.745Z,10.10
2022-08-05T00:47:57.077Z,9.30
2022-08-05T00:50:56.210Z,8.70
2022-08-05T00:54:02.547Z,8.90
2022-08-05T00:56:55.410Z,10.30
2022-08-05T00:59:49.303Z,9.30
2022-08-05T01:02:41.593Z,8.40
2022-08-05T01:05:36.176Z,9.30
2022-08-05T01:08:40.968Z,9.30
2022-08-05T01:11:41.011Z,10.60
2022-08-05T01:17:39.870Z,10.00
2022-08-05T01:20:41.912Z,9.70
2022-08-05T01:24:13.019Z,9.10
2022-08-05T01:27:23.015Z,10.40
2022-08-05T01:30:18.867Z,10.10
2022-08-05T01:33:14.834Z,9.40
2022-08-05T01:36:16.959Z,9.90
2022-08-05T01:39:45.840Z,9.30
2022-08-05T01:42:30.712Z,10.00
2022-08-05T01:45:25.518Z,11.00
2022-08-05T01:48:20.325Z,9.40
2022-08-05T01:51:12.449Z,9.40
2022-08-05T01:54:09.858Z,10.50
2022-08-05T01:58:09.881Z,10.40
2022-08-05T02:00:02.398Z,10.10
2022-08-05T02:02:59.284Z,10.90
2022-08-05T02:05:57.850Z,10.20
2022-08-05T02:08:57.800Z,10.70
2022-08-05T02:11:48.186Z,10.90
2022-08-05T02:14:54.744Z,10.40
2022-08-05T02:18:30.592Z,9.00
2022-08-05T02:21:15.324Z,11.00
2022-08-05T02:24:18.322Z,9.30
2022-08-05T02:27:14.142Z,10.30
2022-08-05T02:30:10.166Z,11.10
2022-08-05T02:32:59.181Z,10.00
2022-08-05T02:35:38.505Z,9.80
2022-08-05T02:38:38.796Z,10.00
2022-08-05T02:41:36.366Z,10.80
2022-08-05T02:44:49.829Z,10.40
2022-08-05T02:48:07.389Z,10.70
2022-08-05T02:51:03.750Z,9.50
2022-08-05T02:54:03.172Z,10.20
2022-08-05T02:56:58.665Z,10.20
2022-08-05T02:59:54.155Z,10.50
2022-08-05T03:02:50.426Z,11.00
2022-08-05T03:06:55.813Z,9.60
2022-08-05T03:08:59.727Z,9.10
2022-08-05T03:11:57.301Z,9.90
2022-08-05T03:14:50.872Z,10.20
2022-08-05T03:17:44.869Z,10.10
2022-08-05T03:20:38.006Z,10.30
2022-08-05T03:23:39.606Z,9.40
2022-08-05T03:26:32.895Z,9.30
2022-08-05T03:29:45.500Z,8.50
2022-08-05T03:32:37.981Z,9.30
2022-08-05T03:35:33.779Z,8.30
2022-08-05T03:38:37.488Z,9.30
2022-08-05T03:41:33.336Z,10.20
2022-08-05T03:44:31.022Z,9.10
2022-08-05T03:47:26.062Z,9.40
2022-08-05T03:50:30.415Z,9.20
2022-08-05T03:55:07.137Z,10.90
2022-08-05T03:56:44.280Z,10.20
2022-08-05T03:59:46.549Z,10.10
2022-08-05T04:02:52.277Z,10.20
2022-08-05T04:05:51.971Z,9.90
2022-08-05T04:08:45.073Z,11.20
2022-08-05T04:11:47.419Z,9.80
2022-08-05T04:14:44.317Z,11.00
2022-08-05T04:17:56.182Z,10.50
2022-08-05T04:20:56.207Z,9.80
2022-08-05T04:24:05.129Z,10.70
2022-08-05T04:27:00.959Z,10.30
2022-08-05T04:29:53.869Z,11.30
2022-08-05T04:32:36.529Z,15.50
2022-08-05T04:36:16.781Z,12.90
2022-08-05T04:38:43.338Z,13.40
2022-08-05T04:41:44.597Z,13.60
2022-08-05T04:44:38.189Z,12.30
2022-08-05T04:47:38.580Z,11.30
2022-08-05T04:50:37.123Z,12.10
2022-08-05T04:53:39.524Z,12.10
2022-08-05T04:56:34.748Z,12.70
2022-08-05T04:59:38.432Z,12.20
2022-08-05T05:02:41.510Z,12.30
2022-08-05T05:06:39.034Z,12.30
2022-08-05T05:08:50.140Z,12.10
2022-08-05T05:11:53.878Z,12.70
2022-08-05T05:14:51.321Z,11.90
2022-08-05T05:17:56.532Z,11.70
2022-08-05T05:20:50.532Z,12.10
2022-08-05T05:24:02.900Z,12.70
2022-08-05T05:26:55.199Z,14.00
2022-08-05T05:30:05.046Z,13.50
2022-08-05T05:33:03.584Z,11.40
2022-08-05T05:36:09.501Z,12.60
2022-08-05T05:39:03.822Z,12.30
2022-08-05T05:41:56.730Z,11.60
2022-08-05T05:44:48.971Z,11.20
2022-08-05T05:48:05.529Z,9.90
2022-08-05T05:50:44.352Z,9.60
2022-08-05T05:53:54.081Z,9.50
2022-08-05T05:56:49.229Z,8.80
2022-08-05T05:59:42.306Z,9.20
2022-08-05T06:02:37.740Z,9.20
2022-08-05T06:05:31.947Z,8.80
2022-08-05T06:08:32.264Z,8.90
2022-08-05T06:11:25.033Z,8.90
2022-08-05T06:14:11.121Z,9.20
2022-08-05T06:17:22.237Z,9.50
2022-08-05T06:20:18.740Z,8.90
2022-08-05T06:23:12.827Z,9.00
2022-08-05T06:26:21.272Z,8.40
2022-08-05T06:29:25.306Z,8.30
2022-08-05T06:32:28.674Z,8.80
2022-08-05T06:36:04.150Z,8.10
2022-08-05T06:38:36.159Z,8.90
2022-08-05T06:41:29.262Z,8.20
2022-08-05T06:44:27.029Z,8.60
2022-08-05T06:48:12.008Z,8.90
2022-08-05T06:50:31.573Z,7.70
2022-08-05T06:53:28.217Z,8.70
2022-08-05T06:56:26.449Z,7.80
2022-08-05T06:59:19.137Z,9.60
2022-08-05T07:02:11.272Z,9.70
2022-08-05T07:04:57.206Z,9.30
2022-08-05T07:07:50.319Z,8.00
2022-08-05T07:10:52.507Z,8.10
2022-08-05T07:14:04.268Z,8.40
2022-08-05T07:17:58.470Z,8.50
2022-08-05T07:23:26.141Z,7.70
2022-08-05T07:26:22.680Z,7.70
2022-08-05T07:29:17.490Z,7.80
2022-08-05T07:32:17.701Z,7.00
2022-08-05T07:36:03.318Z,7.60
2022-08-05T07:38:32.234Z,7.60
2022-08-05T07:42:08.289Z,7.40
2022-08-05T07:44:40.861Z,7.10
2022-08-05T07:47:42.336Z,7.20
2022-08-05T07:50:35.123Z,6.90
2022-08-05T07:53:37.017Z,6.70
2022-08-05T07:57:01.932Z,7.00
2022-08-05T07:59:53.582Z,6.70
2022-08-05T08:03:13.291Z,6.60
2022-08-05T08:05:47.263Z,6.40
2022-08-05T08:08:42.026Z,6.70
2022-08-05T08:11:17.152Z,6.10
2022-08-05T08:14:19.958Z,5.60
2022-08-05T08:17:16.108Z,5.70
2022-08-05T08:20:42.614Z,5.20
2022-08-05T08:24:01.191Z,5.10
2022-08-05T08:26:34.884Z,4.20
2022-08-05T08:30:06.485Z,4.20
2022-08-05T08:32:41.726Z,4.20
2022-08-05T08:35:35.226Z,4.20
2022-08-05T08:38:35.108Z,3.70
2022-08-05T08:41:52.009Z,4.20
2022-08-05T08:45:22.578Z,4.30
2022-08-05T08:48:12.774Z,3.90
2022-08-05T08:52:02.411Z,4.90
2022-08-05T08:54:27.169Z,4.80
2022-08-05T08:57:20.217Z,4.50
2022-08-05T09:00:16.715Z,4.40
2022-08-05T09:03:12.569Z,3.80
2022-08-05T09:06:11.078Z,4.00
2022-08-05T09:09:05.330Z,3.80
2022-08-05T09:12:05.966Z,4.40
2022-08-05T09:15:09.749Z,4.20
2022-08-05T09:18:01.906Z,3.60
2022-08-05T09:20:49.229Z,4.50
2022-08-05T09:23:45.765Z,4.00
2022-08-05T09:26:39.980Z,4.10
2022-08-05T09:29:48.020Z,3.00
2022-08-05T09:32:46.855Z,3.20
2022-08-05T09:35:41.132Z,3.40
2022-08-05T09:38:34.191Z,3.30
2022-08-05T09:41:26.780Z,3.60
2022-08-05T09:44:38.568Z,3.40
2022-08-05T09:47:48.370Z,3.50
2022-08-05T09:50:44.503Z,3.20
2022-08-05T09:53:54.531Z,2.60
2022-08-05T09:56:51.790Z,2.60
2022-08-05T09:59:48.701Z,2.50
2022-08-05T10:05:32.727Z,3.10
2022-08-05T10:08:37.304Z,2.80
2022-08-05T10:11:35.385Z,2.80
2022-08-05T10:14:30.186Z,3.00
2022-08-05T10:20:33.310Z,2.60
2022-08-05T10:23:34.562Z,2.60
2022-08-05T10:26:32.766Z,2.40
2022-08-05T10:30:06.771Z,3.30
2022-08-05T10:32:52.513Z,3.00
2022-08-05T10:35:59.231Z,3.20
2022-08-05T10:38:59.383Z,3.00
2022-08-05T10:42:01.263Z,3.10
2022-08-05T10:44:55.926Z,3.30
2022-08-05T10:48:29.242Z,3.20
2022-08-05T10:51:04.947Z,3.70
2022-08-05T10:54:28.444Z,3.40
2022-08-05T10:57:32.085Z,3.00
2022-08-05T11:00:32.158Z,3.40
2022-08-05T11:03:27.047Z,3.50
2022-08-05T11:06:17.867Z,3.10
2022-08-05T11:09:24.464Z,3.20
2022-08-05T11:12:54.405Z,3.60
2022-08-05T11:16:00.552Z,3.70
2022-08-05T11:18:47.107Z,3.70
2022-08-05T11:21:40.992Z,3.90
2022-08-05T11:24:50.633Z,3.90
2022-08-05T11:28:00.899Z,4.00
2022-08-05T11:31:53.990Z,3.60
2022-08-05T11:34:50.985Z,3.40
2022-08-05T11:38:26.423Z,3.80
2022-08-05T11:41:54.625Z,4.00
2022-08-05T11:44:54.133Z,3.70
2022-08-05T11:47:48.467Z,3.20
2022-08-05T11:50:42.857Z,3.60
2022-08-05T11:53:41.014Z,3.70
2022-08-05T11:56:50.465Z,3.70
2022-08-05T11:59:49.907Z,3.70
2022-08-05T12:02:36.173Z,4.00
2022-08-05T12:05:32.309Z,3.60
2022-08-05T12:08:32.978Z,3.70
2022-08-05T12:11:28.101Z,3.60
2022-08-05T12:14:40.809Z,3.70
2022-08-05T12:18:04.025Z,4.00
2022-08-05T12:20:50.801Z,3.60
2022-08-05T12:23:52.591Z,3.30
2022-08-05T12:26:47.849Z,3.20
2022-08-05T12:29:40.085Z,3.60
2022-08-05T12:32:35.409Z,3.60
2022-08-05T12:35:39.545Z,3.70
2022-08-05T12:38:32.478Z,3.80
2022-08-05T12:44:33.201Z,3.30
2022-08-05T12:47:06.340Z,3.90
2022-08-05T12:50:16.332Z,3.40
2022-08-05T12:53:09.238Z,3.80
2022-08-05T12:56:34.460Z,3.80
2022-08-05T13:00:08.715Z,3.80
2022-08-05T13:02:40.125Z,3.60
2022-08-05T13:05:37.877Z,3.90
2022-08-05T13:08:32.811Z,3.60
2022-08-05T13:12:02.539Z,3.90
2022-08-05T13:14:46.365Z,3.70
2022-08-05T13:17:59.283Z,3.50
2022-08-05T13:20:51.901Z,3.60
2022-08-05T13:23:50.822Z,3.70
2022-08-05T13:26:50.704Z,3.30
2022-08-05T13:29:59.636Z,3.90
2022-08-05T13:32:56.523Z,3.90
2022-08-05T13:35:51.776Z,3.50
2022-08-05T13:38:44.232Z,3.70
2022-08-05T13:41:42.788Z,4.10
2022-08-05T13:44:14.904Z,3.60
2022-08-05T13:47:10.702Z,3.50
2022-08-05T13:50:23.125Z,3.80
2022-08-05T13:53:16.733Z,3.80
2022-08-05T13:56:18.330Z,3.90
2022-08-05T13:59:20.254Z,3.50
2022-08-05T14:02:19.977Z,3.90
2022-08-05T14:05:15.451Z,3.70
2022-08-05T14:08:21.307Z,3.60
2022-08-05T14:11:22.058Z,3.60
2022-08-05T14:14:14.460Z,3.90
2022-08-05T14:17:17.031Z,3.40
2022-08-05T14:20:12.221Z,3.50
2022-08-05T14:23:10.629Z,3.70
2022-08-05T14:26:07.267Z,3.60
2022-08-05T14:29:15.963Z,3.50
2022-08-05T14:32:16.024Z,3.50
2022-08-05T14:35:20.527Z,3.70
2022-08-05T14:38:31.788Z,3.60
2022-08-05T14:41:25.592Z,3.60
2022-08-05T14:44:20.283Z,4.00
2022-08-05T14:47:14.192Z,4.00
2022-08-05T14:50:14.181Z,3.80
2022-08-05T14:53:10.866Z,3.90
2022-08-05T14:56:03.262Z,3.80
2022-08-05T14:58:56.961Z,3.90
2022-08-05T15:01:49.231Z,3.70
2022-08-05T15:04:34.750Z,3.80
2022-08-05T15:08:06.347Z,4.00
2022-08-05T15:10:39.405Z,3.80
2022-08-05T15:13:28.602Z,4.30
2022-08-05T15:16:37.533Z,3.80
2022-08-05T15:19:32.595Z,4.10
2022-08-05T15:22:26.636Z,4.80
2022-08-05T15:25:23.501Z,3.80
2022-08-05T15:28:32.523Z,3.50
2022-08-05T15:31:23.628Z,3.50
2022-08-05T15:34:32.234Z,3.50
2022-08-05T15:38:08.419Z,4.10
2022-08-05T15:41:01.274Z,3.40
2022-08-05T15:43:52.194Z,3.70
2022-08-05T15:46:47.104Z,3.80
2022-08-05T15:49:56.720Z,4.00
2022-08-05T15:52:52.832Z,4.10
2022-08-05T15:56:02.908Z,4.00
2022-08-05T15:58:56.704Z,4.20
2022-08-05T16:01:52.427Z,3.80
2022-08-05T16:04:45.716Z,4.20
2022-08-05T16:07:37.383Z,4.40
2022-08-05T16:10:12.947Z,4.30
2022-08-05T16:13:05.545Z,4.50
2022-08-05T16:15:47.698Z,4.40
2022-08-05T16:18:51.882Z,4.30
2022-08-05T16:22:00.298Z,5.20
2022-08-05T16:24:55.158Z,5.00
2022-08-05T16:28:04.943Z,5.40
2022-08-05T16:31:10.692Z,5.20
2022-08-05T16:34:02.969Z,5.30
2022-08-05T16:36:50.907Z,5.10
2022-08-05T16:40:05.867Z,5.00
2022-08-05T16:42:47.804Z,5.40
2022-08-05T16:46:05.136Z,5.00
2022-08-05T16:48:55.609Z,5.20
2022-08-05T16:51:51.344Z,5.50
2022-08-05T16:54:48.997Z,9.90
2022-08-05T16:57:53.756Z,5.40
2022-08-05T17:00:53.857Z,10.50
2022-08-05T17:03:47.333Z,5.50
2022-08-05T17:06:41.840Z,5.30
2022-08-05T17:09:57.200Z,6.00
2022-08-05T17:12:51.822Z,6.80
2022-08-05T17:15:49.669Z,6.90
2022-08-05T17:18:37.398Z,6.10
2022-08-05T17:21:36.306Z,6.70
2022-08-05T17:24:38.724Z,6.00
2022-08-05T17:27:34.006Z,6.10
2022-08-05T17:30:28.327Z,6.70
2022-08-05T17:33:22.143Z,7.80
2022-08-05T17:36:33.898Z,7.90
2022-08-05T17:39:33.504Z,7.70
2022-08-05T17:42:32.040Z,6.90
2022-08-05T17:45:29.616Z,6.90
2022-08-05T17:48:30.621Z,7.60
2022-08-05T17:51:23.295Z,7.00
2022-08-05T17:54:15.771Z,6.60
2022-08-05T17:57:15.821Z,6.80
2022-08-05T18:00:14.260Z,7.40
2022-08-05T18:03:06.520Z,7.70
2022-08-05T18:06:04.064Z,8.70
2022-08-05T18:08:56.515Z,10.10
2022-08-05T18:11:52.380Z,9.70
2022-08-05T18:14:44.711Z,9.70
2022-08-05T18:17:59.099Z,10.10
2022-08-05T18:20:34.884Z,10.40
2022-08-05T18:23:30.282Z,9.80
2022-08-05T18:26:33.107Z,9.60
2022-08-05T18:29:39.952Z,9.30
2022-08-05T18:32:33.644Z,9.80
2022-08-05T18:35:49.499Z,9.10
2022-08-05T18:38:38.991Z,9.70
2022-08-05T18:41:58.004Z,9.20
2022-08-05T18:44:33.166Z,8.80
2022-08-05T18:47:27.709Z,9.00
2022-08-05T18:50:42.127Z,9.40
2022-08-05T18:53:42.979Z,9.60
2022-08-05T18:56:38.517Z,8.60
2022-08-05T18:59:42.907Z,9.10
2022-08-05T19:02:27.812Z,9.50
2022-08-05T19:06:11.483Z,9.10
2022-08-05T19:08:35.871Z,9.30
2022-08-05T19:11:59.146Z,9.80
2022-08-05T19:15:00.468Z,8.80
2022-08-05T19:18:08.689Z,8.40
2022-08-05T19:20:52.792Z,8.80
2022-08-05T19:24:07.890Z,9.00
2022-08-05T19:26:58.348Z,9.20
2022-08-05T19:29:50.522Z,10.20
2022-08-05T19:32:45.376Z,10.00
2022-08-05T19:35:56.335Z,10.10
2022-08-05T19:38:53.000Z,11.00
2022-08-05T19:42:06.515Z,9.40
2022-08-05T19:44:58.366Z,10.30
2022-08-05T19:47:55.826Z,9.00
2022-08-05T19:50:47.921Z,10.30
2022-08-05T19:54:03.389Z,9.40
2022-08-05T19:56:55.366Z,9.80
2022-08-05T19:59:55.577Z,10.20
2022-08-05T20:03:00.289Z,10.90
2022-08-05T20:05:57.970Z,9.50
2022-08-05T20:08:51.698Z,8.80
2022-08-05T20:11:48.198Z,9.00
2022-08-05T20:14:40.522Z,9.70
2022-08-05T20:17:35.021Z,10.00
2022-08-05T20:20:31.037Z,9.70
2022-08-05T20:23:40.362Z,10.80
2022-08-05T20:26:38.253Z,10.60
2022-08-05T20:29:31.091Z,10.00
2022-08-05T20:32:23.633Z,10.30
2022-08-05T20:35:16.091Z,9.50
2022-08-05T20:38:08.608Z,9.70
2022-08-05T20:41:04.642Z,10.00
2022-08-05T20:44:17.752Z,10.80
2022-08-05T20:47:13.756Z,10.70
2022-08-05T20:50:11.528Z,11.70
2022-08-05T20:53:03.921Z,11.90
2022-08-05T20:56:09.821Z,19.90
2022-08-05T20:59:14.136Z,10.60
2022-08-05T21:02:12.945Z,11.70
2022-08-05T21:05:12.968Z,10.90
2022-08-05T21:08:06.688Z,11.60
2022-08-05T21:10:58.879Z,11.60
2022-08-05T21:13:56.625Z,11.90
2022-08-05T21:16:49.126Z,12.20
2022-08-05T21:19:47.629Z,12.50
2022-08-05T21:22:43.228Z,11.40
2022-08-05T21:25:35.503Z,12.10
2022-08-05T21:28:30.829Z,11.30
2022-08-05T21:31:23.314Z,12.20
2022-08-05T21:34:18.006Z,11.00
2022-08-05T21:37:10.549Z,11.50
2022-08-05T21:40:05.738Z,12.80
2022-08-05T21:42:59.013Z,12.20
2022-08-05T21:45:57.745Z,11.70
2022-08-05T21:48:56.641Z,11.40
2022-08-05T21:52:22.676Z,11.00
2022-08-05T21:54:41.468Z,10.90
2022-08-05T21:57:34.728Z,10.90
2022-08-05T22:00:21.404Z,11.80
2022-08-05T22:02:53.682Z,12.60
2022-08-05T22:05:48.771Z,12.40
2022-08-05T22:08:42.453Z,12.70
2022-08-05T22:11:35.780Z,12.00
2022-08-05T22:14:35.236Z,10.60
2022-08-05T22:17:30.676Z,11.90
2022-08-05T22:20:25.719Z,10.90
2022-08-05T22:24:02.842Z,11.00
2022-08-05T22:27:06.705Z,12.20
2022-08-05T22:29:59.270Z,10.80
2022-08-05T22:32:51.353Z,13.50
2022-08-05T22:35:48.659Z,12.20
2022-08-05T22:38:41.563Z,13.60
2022-08-05T22:42:10.739Z,12.20
2022-08-05T22:44:56.331Z,12.40
2022-08-05T22:47:49.885Z,12.40
2022-08-05T22:50:56.019Z,12.60
2022-08-05T22:53:50.049Z,12.60
2022-08-05T22:56:42.597Z,12.00
2022-08-05T22:59:45.914Z,13.40
2022-08-05T23:02:46.865Z,13.70
2022-08-05T23:05:39.610Z,13.80
2022-08-05T23:08:32.447Z,15.10
2022-08-05T23:11:26.529Z,13.40
2022-08-05T23:14:22.381Z,13.00
2022-08-05T23:17:34.267Z,12.10
2022-08-05T23:20:29.105Z,13.50
2022-08-05T23:23:22.393Z,12.70
2022-08-05T23:26:14.917Z,12.80
2022-08-05T23:29:08.301Z,13.20
2022-08-05T23:32:03.499Z,13.50
2022-08-05T23:34:56.877Z,14.30
2022-08-05T23:37:49.160Z,14.50
2022-08-05T23:40:34.616Z,13.60
2022-08-05T23:44:03.705Z,12.80
2022-08-05T23:46:39.263Z,13.20
2022-08-05T23:49:33.915Z,12.90
2022-08-05T23:52:30.797Z,12.40
2022-08-05T23:55:24.693Z,13.40
2022-08-05T23:58:31.807Z,13.60
